Spot Road, Arizona (BMGR) Weather observations

Data are for 10 minute period ending at time listed.
 Day   Time   Solar   Ave.   Ave.  Ave.  Vector  Max.   Total    
  of    of     Rad.   Air    Rel.  Wind   Wind   Wind  Precip.   
Year   Day            Temp.  Hum.  Speed  Dir.   Gust            
2026   (MST)  Kw/m2    F      %     mph   deg.    mph    in.     
-----------------------------------------------------------------
 122   14:35   0.80   94.3    10    5.8   166     9.9    0.00 
 122   14:40   0.64   95.1    10    3.7   140     8.8    0.00 
 122   14:45   0.63   95.1    10    6.6   162    11.0    0.00 
 122   14:50   0.75   95.6    10    7.4   157    12.7    0.00 
 122   14:55   0.71   94.8    10    4.7   125     8.8    0.00 
 122   15:00   0.72   96.1     9    2.6   179     5.4    0.00 
 122   15:05   0.71   97.0     9    2.7   358     8.8    0.00 
 122   15:10   0.69   95.0    10    4.5   359     9.9    0.00 
 122   15:15   0.61   94.7    10    6.7     7    11.0    0.00 
 122   15:20   0.68   94.1    10    7.6   344    12.1    0.00 
 122   15:25   0.53   95.2    10    6.9   306    11.0    0.00 
 122   15:30   0.49   94.6    10    9.0   331    14.9    0.00 
 122   15:35   0.45   94.7    10    4.2   295     8.2    0.00 
 122   15:40   0.51   95.7    10    4.3   345    12.7    0.00 
 122   15:45   0.43   95.3    10    9.0   266    13.8    0.00 
 122   15:50   0.40   94.6    10   10.1   264    14.9    0.00 
 122   15:55   0.37   93.5    10    3.9   320     9.9    0.00 
 122   16:00   0.38   94.8    10    8.6   284    11.6    0.00 
 122   16:05   0.40   94.7    10    9.0   287    13.8    0.00 
 122   16:10   0.38   94.4    10    7.0   265    14.9    0.00 
 122   16:15   0.48   94.3    10    6.8   269    10.5    0.00 
 122   16:20   0.42   95.1    10    8.1   246    12.1    0.00 
 122   16:25   0.28   94.8    10    7.0   249    12.1    0.00 
 122   16:30   0.27   94.8    10    9.6   243    14.4    0.00 
 122   16:35   0.45   94.4    10    6.7   236     9.3    0.00 
 122   16:40   0.56   95.1    10    5.2   177     8.2    0.00 
 122   16:45   0.51   95.0    10    3.4   196     6.0    0.00 
 122   16:50   0.36   95.7     9    6.8   224     9.9    0.00 
 122   16:55   0.23   94.7    10    5.1   234     7.7    0.00 
 122   17:00   0.34   95.3    10    7.9   222    12.1    0.00 
 122   17:05   0.36   94.6    10   10.3   195    13.8    0.00 
 122   17:10   0.34   94.4    10    7.8   184    11.0    0.00 
 122   17:15   0.22   95.5    10    7.9   248    12.1    0.00 
 122   17:20   0.18   95.0    10    7.5   228    11.0    0.00 
 122   17:25   0.36   94.6    10    7.9   288    13.3    0.00 
 122   17:30   0.33   94.8    10   10.0   273    14.4    0.00 
 122   17:35   0.22   94.0    10   11.3   282    18.9    0.00 
 122   17:40   0.30   93.8    10    4.6   313     9.3    0.00 
 122   17:45   0.30   93.9    10    6.5   332     9.9    0.00 
 122   17:50   0.25   94.0    10    8.7   325    13.8    0.00 
 122   17:55   0.23   94.3    10    9.3   296    14.4    0.00 
 122   18:00   0.21   94.2    10    8.1   314    12.1    0.00 
 122   18:05   0.20   94.0    10    7.0   333    12.1    0.00 
 122   18:10   0.18   94.4    10    6.1   286     8.8    0.00 
 122   18:15   0.16   94.6    10    6.9   248     9.9    0.00 
 122   18:20   0.14   94.7    10    7.0   230     9.9    0.00 
 122   18:25   0.13   94.8     9    6.1   232     9.3    0.00 
 122   18:30   0.12   94.3    10    5.4   250     9.3    0.00 
 122   18:35   0.10   94.1    10    4.8   252     6.5    0.00 
 122   18:40   0.09   94.1    10    6.6   277     9.3    0.00 
 122   18:45   0.07   93.6    10    7.9   296     9.9    0.00 
 122   18:50   0.06   93.2    10    7.4   296     8.8    0.00 
 122   18:55   0.04   92.8    10    9.2   287    11.0    0.00 
 122   19:00   0.02   92.4    10    8.1   293     9.9    0.00 
 122   19:05   0.01   92.1    10    6.1   274     7.7    0.00 
 122   19:10   0.01   92.0    10    5.8   273     7.7    0.00 
 122   19:15   0.01   92.0    10    6.9   262     8.2    0.00 
 122   19:20   0.00   91.9    10    6.6   261     8.8    0.00 
 122   19:25   0.00   91.3    10    6.3   280     7.1    0.00 
 122   19:30   0.00   89.9    11    5.1   315     6.0    0.00 
 122   19:35   0.00   88.9    12    6.3   311     7.1    0.00 
 122   19:40   0.00   88.8    12    7.1   308     7.7    0.00 
 122   19:45   0.00   89.6    11    7.6   304     8.2    0.00 
 122   19:50   0.00   89.9    11    8.3   290     9.3    0.00 
 122   19:55   0.00   89.9    11    9.0   286     9.3    0.00 
 122   20:00   0.00   89.8    11    9.7   286    10.5    0.00 
 122   20:05   0.00   88.7    11   10.2   289    11.0    0.00 
 122   20:10   0.00   87.9    12    9.9   295    11.6    0.00 
 122   20:15   0.00   87.1    12    9.1   298    10.5    0.00 
 122   20:20   0.00   86.7    12    8.2   300     9.3    0.00 
 122   20:25   0.00   86.7    12    8.4   302     8.8    0.00 
 122   20:30   0.00   87.2    12    9.1   296     9.9    0.00 
 122   20:35   0.00   87.7    12    9.0   284     9.9    0.00 
 122   20:40   0.00   87.2    12    7.7   274     8.8    0.00 
 122   20:45   0.00   86.8    12    7.1   267     7.7    0.00 
 122   20:50   0.00   86.3    12    7.3   269     8.2    0.00 
 122   20:55   0.00   86.0    12    7.0   270     7.7    0.00 
 122   21:00   0.00   86.0    12    6.6   264     7.7    0.00 
 122   21:05   0.00   86.7    12    7.1   266     8.2    0.00 
 122   21:10   0.00   86.6    12    7.0   262     8.2    0.00 
 122   21:15   0.00   86.3    12    7.4   264     8.2    0.00 
 122   21:20   0.00   86.1    12    7.7   260     8.2    0.00 
 122   21:25   0.00   86.7    12    7.9   258     8.2    0.00 
 122   21:30   0.00   87.1    11    7.5   259     8.2    0.00 
 122   21:35   0.00   86.9    11    5.7   248     7.1    0.00 
 122   21:40   0.00   85.5    12    3.7   200     4.9    0.00 
 122   21:45   0.00   83.9    12    4.0   135     9.3    0.00 
 122   21:50   0.00   81.3    13    9.5   101    12.7    0.00 
 122   21:55   0.00   83.8    12    9.0    99    12.1    0.00 
 122   22:00   0.00   84.8    12    5.7   101     7.7    0.00 
 122   22:05   0.00   85.4    12    5.0    84     6.5    0.00 
 122   22:10   0.00   85.6    12    4.5    91     6.0    0.00 
 122   22:15   0.00   85.7    11    4.8   114     6.5    0.00 
 122   22:20   0.00   84.4    12    7.9   102     8.8    0.00 
 122   22:25   0.00   84.3    12    8.5   104     9.3    0.00 
 122   22:30   0.00   85.1    12    9.0   108     9.3    0.00 
 122   22:35   0.00   83.8    12    8.2   115     9.3    0.00 
 122   22:40   0.00   82.4    12    7.6   136     8.8    0.00 
 122   22:45   0.00   82.3    13    6.3   129     7.7    0.00 
 122   22:50   0.00   82.3    12    6.1   124     7.1    0.00 
 122   22:55   0.00   83.6    12    5.1   143     6.0    0.00 
 122   23:00   0.00   85.5    12    4.9   160     5.4    0.00 
 122   23:05   0.00   86.6    11    5.6   172     6.5    0.00 
 122   23:10   0.00   86.0    11    5.5   178     6.0    0.00 
 122   23:15   0.00   85.9    11    4.7   191     5.4    0.00 
 122   23:20   0.00   85.8    11    3.6   202     4.3    0.00 
 122   23:25   0.00   85.8    11    2.7   222     3.8    0.00 
 122   23:30   0.00   85.1    12    3.0   257     4.3    0.00 
 122   23:35   0.00   78.9    13    9.5    26    13.8    0.00 
 122   23:40   0.00   76.4    14    8.6    44    11.6    0.00 
 122   23:45   0.00   77.0    15    6.6    60     8.2    0.00 
 122   23:50   0.00   77.5    15    5.4    86     7.1    0.00 
 122   23:55   0.00   79.4    15    5.6    97     7.1    0.00 
 123    0:00   0.00   79.0    16    7.2   108     8.8    0.00 
 123    0:05   0.00   77.5    17    7.2   112     8.8    0.00 
 123    0:10   0.00   77.4    17    7.1   108     8.8    0.00 
 123    0:15   0.00   77.4    18    7.1   112     8.2    0.00 
 123    0:20   0.00   77.5    18    6.4   117     7.1    0.00 
 123    0:25   0.00   78.0    18    6.0   118     6.5    0.00 
 123    0:30   0.00   77.9    18    6.2   118     7.1    0.00 
 123    0:35   0.00   77.2    18    6.6   117     7.1    0.00 
 123    0:40   0.00   76.7    18    6.3   119     7.1    0.00 
 123    0:45   0.00   76.7    19    5.6   128     7.1    0.00 
 123    0:50   0.00   77.7    18    4.2   137     6.0    0.00 
 123    0:55   0.00   79.8    17    4.0   158     5.4    0.00 
 123    1:00   0.00   80.0    16    3.4   150     4.3    0.00 
 123    1:05   0.00   78.5    18    4.3   116     5.4    0.00 
 123    1:10   0.00   76.8    19    5.5   121     6.0    0.00 
 123    1:15   0.00   77.6    18    5.4   137     6.5    0.00 
 123    1:20   0.00   79.2    16    5.7   161     6.5    0.00 
 123    1:25   0.00   79.6    16    5.3   158     6.0    0.00 
 123    1:30   0.00   78.3    17    4.8   148     6.0    0.00 
 123    1:35   0.00   78.5    17    5.2   135     6.0    0.00 
 123    1:40   0.00   76.5    19    7.0   115     8.2    0.00 
 123    1:45   0.00   76.6    19    7.0   121     7.7    0.00 
 123    1:50   0.00   76.5    20    6.5   116     7.1    0.00 
 123    1:55   0.00   75.5    21    6.7   108     8.2    0.00 
 123    2:00   0.00   74.8    21    7.9   104     9.9    0.00 
 123    2:05   0.00   74.5    21    7.7   108     9.3    0.00 
 123    2:10   0.00   74.8    21    8.2   110     9.3    0.00 
 123    2:15   0.00   75.1    21    8.5   110     9.9    0.00 
 123    2:20   0.00   75.4    21    9.2   105    11.0    0.00 
 123    2:25   0.00   75.6    21    9.1   107     9.9    0.00 
 123    2:30   0.00   75.6    21    8.5   106     9.9    0.00 
 123    2:35   0.00   75.5    21    8.6   103     9.9    0.00 
 123    2:40   0.00   75.6    20    9.6   104    11.0    0.00 
 123    2:45   0.00   75.7    20    9.9   108    11.6    0.00 
 123    2:50   0.00   76.0    20   10.5   108    12.1    0.00 
 123    2:55   0.00   75.7    20   10.5   103    12.7    0.00 
 123    3:00   0.00   75.2    21   10.5   104    12.1    0.00 
 123    3:05   0.00   74.7    21   10.2   102    12.7    0.00 
 123    3:10   0.00   74.4    21   10.6   104    12.7    0.00 
 123    3:15   0.00   74.1    21   10.7   107    13.3    0.00 
 123    3:20   0.00   73.9    21   10.6   106    12.1    0.00 
 123    3:25   0.00   73.8    21   10.1   105    12.1    0.00 
 123    3:30   0.00   73.8    21   10.1   106    12.1    0.00 
 123    3:35   0.00   73.7    21   10.5   109    12.1    0.00 
 123    3:40   0.00   73.7    21    9.7   107    11.6    0.00 
 123    3:45   0.00   73.7    20   10.4   102    12.1    0.00 
 123    3:50   0.00   73.9    20   10.7   101    12.7    0.00 
 123    3:55   0.00   74.4    20   11.9   105    14.4    0.00 
 123    4:00   0.00   74.6    20   12.0   109    14.4    0.00 
 123    4:05   0.00   74.7    20   11.1   111    13.3    0.00 
 123    4:10   0.00   74.8    20   11.2   108    13.3    0.00 
 123    4:15   0.00   74.8    20   10.9   107    12.7    0.00 
 123    4:20   0.00   75.3    20   10.9   108    13.3    0.00 
 123    4:25   0.00   75.8    19   11.0   108    12.7    0.00 
 123    4:30   0.00   75.8    19   11.3   108    13.8    0.00 
 123    4:35   0.00   75.8    19   14.4   110    17.2    0.00 
 123    4:40   0.00   76.2    19   13.5   111    16.6    0.00 
 123    4:45   0.00   76.2    19   11.7   107    13.8    0.00 
 123    4:50   0.00   75.8    19   12.1   107    14.4    0.00 
 123    4:55   0.00   75.5    19   12.3   106    14.4    0.00 
 123    5:00   0.00   75.4    19   12.4   104    15.5    0.00 
 123    5:05   0.00   75.7    19   12.7   106    14.4    0.00 
 123    5:10   0.00   75.5    19   11.2   108    13.3    0.00 
 123    5:15   0.00   75.4    19   12.2   106    14.4    0.00 
 123    5:20   0.00   75.3    19   12.7   108    14.9    0.00 
 123    5:25   0.00   75.1    20   13.5   106    16.6    0.00 
 123    5:30   0.00   74.8    20   13.3   101    16.6    0.00 
 123    5:35   0.00   74.4    20   13.4    98    15.5    0.00 
 123    5:40   0.00   74.2    20   13.7   103    16.0    0.00 
 123    5:45   0.00   73.8    21   12.8   104    14.4    0.00 
 123    5:50   0.00   73.7    21   12.6   107    15.5    0.00 
 123    5:55   0.00   73.8    21   13.8   107    16.0    0.00 
 123    6:00   0.01   73.8    22   13.8   109    15.5    0.00 
 123    6:05   0.01   73.9    22   13.5   109    16.0    0.00 
 123    6:10   0.02   73.9    22   13.7   105    15.5    0.00 
 123    6:15   0.02   73.8    22   13.8   104    16.0    0.00 
 123    6:20   0.02   74.0    22   14.7   100    17.2    0.00 
 123    6:25   0.04   74.4    22   14.1   100    17.2    0.00 
 123    6:30   0.04   74.6    22   12.9    96    14.9    0.00 
 123    6:35   0.05   74.9    22   13.7    92    16.0    0.00 
 123    6:40   0.05   75.0    22   12.4    80    14.4    0.00 
 123    6:45   0.06   75.1    22   12.4    86    15.5    0.00 
 123    6:50   0.06   75.7    21   13.2   101    15.5    0.00 
 123    6:55   0.07   75.9    21   12.1    99    14.9    0.00 
 123    7:00   0.07   75.9    21   11.2    96    13.8    0.00 
 123    7:05   0.09   76.0    21   10.8    87    12.7    0.00 
 123    7:10   0.11   76.4    21    9.3    86    11.6    0.00 
 123    7:15   0.12   77.1    20    9.2    82    10.5    0.00 
 123    7:20   0.12   76.8    21    7.8    59     9.3    0.00 
 123    7:25   0.13   77.0    21    7.4    77    10.5    0.00 
 123    7:30   0.18   77.2    20    7.7    91     9.9    0.00 
 123    7:35   0.26   77.6    20    8.7    88    11.0    0.00 
 123    7:40   0.30   78.0    20    7.9    85    10.5    0.00 
 123    7:45   0.21   78.7    20    8.7    86    11.6    0.00 
 123    7:50   0.17   79.1    19    9.0    89    10.5    0.00 
 123    7:55   0.17   79.7    19    8.6    92    11.0    0.00 
 123    8:00   0.21   80.3    18    8.2    91    10.5    0.00 
 123    8:05   0.25   81.4    18    5.7   100     7.1    0.00 
 123    8:10   0.22   82.1    17    4.8   136     6.5    0.00 
 123    8:15   0.24   82.5    17    4.7   128     6.0    0.00 
 123    8:20   0.29   83.0    16    5.6   133     8.2    0.00 
 123    8:25   0.37   83.6    16    7.1   156     9.9    0.00 
 123    8:30   0.42   83.9    16    7.8   162    11.0    0.00 
 123    8:35   0.38   84.2    16    9.6   166    13.3    0.00 
 123    8:40   0.43   84.5    16   12.7   161    15.5    0.00 
 123    8:45   0.54   84.5    16   12.3   154    16.6    0.00 
 123    8:50   0.53   85.1    16   13.2   148    17.2    0.00 
 123    8:55   0.55   85.8    16   12.8   137    20.5    0.00 
 123    9:00   0.54   85.5    16   17.0   137    21.1    0.00 
 123    9:05   0.57   85.3    16   15.9   134    20.0    0.00 
 123    9:10   0.52   86.0    16   13.5   133    16.6    0.00 
 123    9:15   0.54   86.3    15   15.6   147    20.0    0.00 
 123    9:20   0.53   86.4    16   15.3   148    20.5    0.00 
 123    9:25   0.55   86.4    16   14.8   149    19.4    0.00 
 123    9:30   0.58   86.6    16   14.6   150    19.4    0.00 
 123    9:35   0.52   86.6    16   15.6   157    21.1    0.00 
 123    9:40   0.55   86.5    16   16.9   162    21.1    0.00 
 123    9:45   0.59   86.9    15   17.8   160    23.3    0.00 
 123    9:50   0.59   87.2    15   19.8   164    25.0    0.00 
 123    9:55   0.72   87.2    15   20.0   163    25.6    0.00 
 123   10:00   0.73   87.5    15   17.5   164    21.1    0.00 
 123   10:05   0.64   88.2    15   17.6   157    23.9    0.00 
 123   10:10   0.75   88.2    15   18.2   155    23.3    0.00 
 123   10:15   0.77   88.7    15   18.9   172    25.0    0.00 
 123   10:20   0.77   88.5    14   17.6   141    21.6    0.00 
 123   10:25   0.58   88.5    15   20.3   154    30.0    0.00 
 123   10:30   0.56   87.8    15   23.5   159    27.8    0.00 
 123   10:35   0.72   88.1    15   21.0   156    25.0    0.00 
 123   10:40   0.83   88.4    15   18.5   141    23.9    0.00 
 123   10:45   0.81   89.2    14   20.9   157    26.7    0.00 
 123   10:50   0.79   89.0    15   21.6   167    28.4    0.00 
 123   10:55   0.64   88.8    15   23.1   168    29.5    0.00 
 123   11:00   0.77   88.6    16   20.4   166    26.7    0.00 
 123   11:05   0.59   89.1    16   21.6   170    26.7    0.00 
 123   11:10   0.75   88.7    16   21.7   166    29.5    0.00 
 123   11:15   0.83   88.9    16   20.8   169    26.7    0.00 
 123   11:20   0.87   89.2    16   24.6   161    28.9    0.00 
 123   11:25   0.82   89.0    16   20.3   156    27.2    0.00 
 123   11:30   0.75   89.3    16   21.5   159    30.6    0.00 
 123   11:35   0.89   89.8    15   19.4   155    27.8    0.00 
 123   11:40   0.91   90.5    14   19.7   154    27.2    0.00 
 123   11:45   0.91   90.2    14   23.0   160    29.5    0.00 
 123   11:50   0.92   90.3    14   20.3   162    25.0    0.00 
 123   11:55   0.91   90.8    14   22.7   160    28.4    0.00 
 123   12:00   0.91   90.6    14   22.5   159    30.0    0.00 
 123   12:05   0.91   90.7    14   20.3   154    26.7    0.00 
 123   12:10   0.91   90.4    14   21.9   160    28.9    0.00 
 123   12:15   0.91   91.4    14   21.6   144    28.4    0.00 
 123   12:20   0.91   90.8    14   23.7   140    30.0    0.00 
 123   12:25   0.92   90.6    14   22.5   145    29.5    0.00 
 123   12:30   0.92   90.7    14   24.3   149    30.0    0.00 
 123   12:35   0.92   90.6    14   22.5   139    28.9    0.00 
 123   12:40   0.91   90.9    15   22.9   144    31.1    0.00 
 123   12:45   0.91   91.1    15   21.9   160    29.5    0.00 
 123   12:50   0.91   91.6    15   23.5   142    33.9    0.00 
 123   12:55   0.91   91.6    14   18.4   134    27.2    0.00 
 123   13:00   0.91   91.7    14   22.1   147    28.9    0.00 
 123   13:05   0.90   91.3    14   18.5   153    27.2    0.00 
 123   13:10   0.90   91.6    14   20.1   162    30.6    0.00 
 123   13:15   0.90   91.7    14   23.1   153    32.8    0.00 
 123   13:20   0.89   91.6    14   20.4   166    30.0    0.00 
 123   13:25   0.89   92.3    14   20.5   176    27.8    0.00 
 123   13:30   0.89   92.2    14   25.1   166    33.4    0.00 
 123   13:35   0.88   91.8    14   22.4   179    28.9    0.00 
 123   13:40   0.88   92.0    14   25.4   160    35.1    0.00 
 123   13:45   0.87   92.0    14   25.8   152    31.7    0.00 
 123   13:50   0.86   91.6    15   22.9   151    30.0    0.00 
 123   13:55   0.85   91.8    14   20.3   135    26.1    0.00 
 123   14:00   0.85   92.5    14   22.2   160    27.2    0.00 
 123   14:05   0.84   91.9    15   21.2   144    30.6    0.00 
 123   14:10   0.83   91.9    14   23.6   131    32.3    0.00 
 123   14:15   0.83   91.9    14   22.1   160    32.8    0.00 
 123   14:20   0.81   91.9    14   23.3   171    31.1    0.00 
 123   14:25   0.80   91.4    15   19.0   161    32.3    0.00 
 123   14:30   0.79   91.7    15   21.6   131    30.0    0.00 

Return to Spot Road graphs page.


Western Regional Climate Center,wrcc@dri.edu